Main page
METAR-TAF:

METAR-TAF

Airports :

Kuwait International Airport

Kuwait City, Kuwait

latitude: 29-13N, longitude: 047-59E, elevation: 55 m

Current weather observation

The report was made 38 minutes ago, at 19:00 UTC
Wind 14 kt from the North/Northwest
Temperature 42°C
Humidity 15%
Pressure 995 hPa
Visibility: 5000 m
widespread dust

METAR: OKBK 281900Z 34014KT 5000 DU NSC 42/10 Q0995 NOSIG

Time: 22:38 (19:38 UTC)

Forecast

The report was made 2 hours and 53 minutes ago, at 16:45 UTC
Forecast valid from 28 at 18 UTC to 29 at 24 UTC
Wind 10 kt from the North with gusts up to 20 kt
Visibility: 7000 m
Temporary
from 28 at 18 UTC to 29 at 06 UTC
Visibility: 4000 m
Blowing dust

TAF: OKBK 281645Z 2818/2924 36010G20KT 7000 NSC TEMPO 2818/2906 4000 BLDU

Weather observations and forecasts of more than 4000 airports (METAR and TAF reports).

The available stations are represented by yellow and red dots on the map.

Hover mouse over dot to see the name of the station.

Then click to see weather observations and forecasts.

To change the map : click on the green buttons with a black cross to zoom in, on the green button with a dash to zoom out, or on the green arrows for adjacent maps.


METAR-TAF: